createdAt,value
2018-08-14T00:00:26.825Z,20.00
2018-08-14T00:02:55.029Z,20.00
2018-08-14T00:05:23.131Z,19.80
2018-08-14T00:07:51.256Z,19.80
2018-08-14T00:10:19.345Z,20.10
2018-08-14T00:12:47.489Z,20.00
2018-08-14T00:15:15.961Z,19.80
2018-08-14T00:17:45.631Z,19.90
2018-08-14T00:20:15.198Z,19.80
2018-08-14T00:22:43.286Z,19.80
2018-08-14T00:25:11.448Z,19.90
2018-08-14T00:27:40.012Z,19.80
2018-08-14T00:30:11.893Z,19.80
2018-08-14T00:32:39.996Z,19.90
2018-08-14T00:35:08.189Z,19.90
2018-08-14T00:37:36.308Z,19.80
2018-08-14T00:40:05.224Z,19.90
2018-08-14T00:42:33.393Z,20.00
2018-08-14T00:45:01.519Z,20.00
2018-08-14T00:47:29.659Z,20.00
2018-08-14T00:49:57.881Z,20.00
2018-08-14T00:52:25.973Z,19.80
2018-08-14T00:54:54.057Z,19.90
2018-08-14T00:57:22.156Z,20.00
2018-08-14T00:59:50.255Z,19.60
2018-08-14T01:02:18.324Z,19.90
2018-08-14T01:04:46.412Z,19.80
2018-08-14T01:07:14.491Z,19.80
2018-08-14T01:09:42.562Z,19.90
2018-08-14T01:12:10.664Z,20.00
2018-08-14T01:14:38.747Z,19.90
2018-08-14T01:17:06.876Z,19.80
2018-08-14T01:19:35.028Z,19.70
2018-08-14T01:22:03.253Z,19.70
2018-08-14T01:24:31.347Z,19.70
2018-08-14T01:26:59.507Z,19.80
2018-08-14T01:29:27.622Z,19.50
2018-08-14T01:31:55.704Z,19.70
2018-08-14T01:34:23.789Z,19.80
2018-08-14T01:36:51.855Z,19.60
2018-08-14T01:39:19.958Z,19.70
2018-08-14T01:41:48.041Z,19.50
2018-08-14T01:44:16.936Z,19.80
2018-08-14T01:46:45.078Z,19.50
2018-08-14T01:49:13.171Z,19.80
2018-08-14T01:51:41.246Z,20.00
2018-08-14T01:54:09.641Z,19.80
2018-08-14T01:56:37.918Z,19.90
2018-08-14T01:59:06.488Z,19.70
2018-08-14T02:01:34.585Z,19.50
2018-08-14T02:04:02.701Z,19.50
2018-08-14T02:06:31.065Z,19.90
2018-08-14T02:08:59.164Z,19.80
2018-08-14T02:11:28.381Z,19.80
2018-08-14T02:13:56.971Z,19.90
2018-08-14T02:16:25.064Z,19.90
2018-08-14T02:18:53.156Z,19.60
2018-08-14T02:21:21.232Z,19.50
2018-08-14T02:23:49.322Z,19.50
2018-08-14T02:26:17.401Z,19.80
2018-08-14T02:28:45.544Z,19.90
2018-08-14T02:31:13.696Z,19.70
2018-08-14T02:33:41.820Z,19.60
2018-08-14T02:36:09.875Z,19.50
2018-08-14T02:38:37.986Z,19.70
2018-08-14T02:41:06.105Z,19.90
2018-08-14T02:43:34.238Z,20.00
2018-08-14T02:46:02.409Z,20.00
2018-08-14T02:48:30.829Z,19.80
2018-08-14T02:50:58.967Z,19.90
2018-08-14T02:53:27.112Z,19.80
2018-08-14T02:55:55.216Z,19.90
2018-08-14T02:58:23.353Z,19.90
2018-08-14T03:00:51.469Z,20.10
2018-08-14T03:03:19.581Z,20.00
2018-08-14T03:05:47.678Z,20.00
2018-08-14T03:08:15.814Z,19.80
2018-08-14T03:10:43.903Z,19.70
2018-08-14T03:13:12.073Z,19.80
2018-08-14T03:15:40.180Z,19.70
2018-08-14T03:18:08.356Z,19.80
2018-08-14T03:20:39.303Z,19.80
2018-08-14T03:23:08.725Z,19.90
2018-08-14T03:25:37.126Z,19.80
2018-08-14T03:28:05.796Z,19.70
2018-08-14T03:30:34.005Z,19.60
2018-08-14T03:33:02.217Z,19.80
2018-08-14T03:35:30.394Z,19.80
2018-08-14T03:37:58.985Z,19.70
2018-08-14T03:40:27.173Z,19.80
2018-08-14T03:42:55.288Z,19.70
2018-08-14T03:45:23.399Z,19.80
2018-08-14T03:47:51.512Z,19.90
2018-08-14T03:50:19.640Z,19.80
2018-08-14T03:52:47.882Z,19.70
2018-08-14T03:55:17.236Z,19.70
2018-08-14T03:57:45.447Z,19.60
2018-08-14T04:00:15.275Z,19.50
2018-08-14T04:02:43.415Z,19.70
2018-08-14T04:05:11.973Z,19.70
2018-08-14T04:07:40.189Z,19.80
2018-08-14T04:10:09.021Z,19.80
2018-08-14T04:12:37.175Z,19.80
2018-08-14T04:15:06.412Z,19.80
2018-08-14T04:17:34.521Z,19.80
2018-08-14T04:20:02.730Z,20.00
2018-08-14T04:22:30.904Z,19.80
2018-08-14T04:24:59.051Z,19.80
2018-08-14T04:27:27.241Z,19.70
2018-08-14T04:29:55.422Z,19.80
2018-08-14T04:32:23.616Z,19.80
2018-08-14T04:34:51.737Z,19.90
2018-08-14T04:37:19.869Z,20.00
2018-08-14T04:39:48.031Z,20.00
2018-08-14T04:42:16.172Z,19.90
2018-08-14T04:44:44.329Z,19.80
2018-08-14T04:47:12.421Z,20.00
2018-08-14T04:49:40.576Z,19.80
2018-08-14T04:52:08.700Z,19.80
2018-08-14T04:54:36.921Z,19.80
2018-08-14T04:57:05.058Z,19.70
2018-08-14T04:59:33.226Z,19.70
2018-08-14T05:02:01.504Z,19.90
2018-08-14T05:04:29.772Z,20.00
2018-08-14T05:06:57.953Z,19.80
2018-08-14T05:09:26.069Z,19.90
2018-08-14T05:11:54.145Z,20.10
2018-08-14T05:14:22.234Z,19.90
2018-08-14T05:16:50.318Z,19.90
2018-08-14T05:19:18.424Z,19.70
2018-08-14T05:21:46.870Z,19.90
2018-08-14T05:24:15.035Z,19.90
2018-08-14T05:26:43.136Z,19.80
2018-08-14T05:29:11.216Z,19.80
2018-08-14T05:31:39.385Z,19.80
2018-08-14T05:34:07.928Z,20.00
2018-08-14T05:36:36.140Z,20.10
2018-08-14T05:39:06.580Z,19.80
2018-08-14T05:41:34.688Z,19.90
2018-08-14T05:44:04.980Z,19.80
2018-08-14T05:46:33.092Z,19.80
2018-08-14T05:49:01.216Z,20.00
2018-08-14T05:51:29.360Z,19.90
2018-08-14T05:53:57.672Z,19.90
2018-08-14T05:56:25.800Z,19.70
2018-08-14T05:58:53.994Z,19.90
2018-08-14T06:01:22.045Z,19.80
2018-08-14T06:03:52.140Z,19.90
2018-08-14T06:06:20.229Z,20.00
2018-08-14T06:08:48.355Z,20.10
2018-08-14T06:11:16.424Z,20.00
2018-08-14T06:13:44.600Z,20.00
2018-08-14T06:16:12.706Z,19.80
2018-08-14T06:18:40.793Z,20.00
2018-08-14T06:21:09.040Z,20.10
2018-08-14T06:23:37.227Z,19.90
2018-08-14T06:26:05.754Z,19.90
2018-08-14T06:28:33.837Z,19.80
2018-08-14T06:31:02.067Z,19.60
2018-08-14T06:33:30.263Z,19.60
2018-08-14T06:35:58.460Z,19.80
2018-08-14T06:38:26.608Z,19.70
2018-08-14T06:40:55.397Z,19.90
2018-08-14T06:43:23.510Z,20.00
2018-08-14T06:45:51.591Z,19.90
2018-08-14T06:48:19.700Z,20.00
2018-08-14T06:50:47.780Z,20.10
2018-08-14T06:53:15.917Z,20.10
2018-08-14T06:55:43.964Z,20.10
2018-08-14T06:58:12.077Z,20.10
2018-08-14T07:00:40.172Z,20.10
2018-08-14T07:03:08.344Z,20.10
2018-08-14T07:05:36.452Z,20.10
2018-08-14T07:08:05.043Z,20.20
2018-08-14T07:10:33.317Z,20.40
2018-08-14T07:13:01.452Z,20.30
2018-08-14T07:15:29.689Z,20.20
2018-08-14T07:17:57.914Z,20.20
2018-08-14T07:20:26.911Z,20.30
2018-08-14T07:22:55.080Z,20.30
2018-08-14T07:25:23.152Z,20.20
2018-08-14T07:27:51.300Z,20.30
2018-08-14T07:30:22.372Z,20.30
2018-08-14T07:32:50.744Z,20.30
2018-08-14T07:35:18.836Z,20.30
2018-08-14T07:37:47.162Z,20.30
2018-08-14T07:40:15.252Z,20.40
2018-08-14T07:42:43.420Z,20.40
2018-08-14T07:45:13.872Z,20.40
2018-08-14T07:47:42.456Z,20.40
2018-08-14T07:50:10.793Z,20.50
2018-08-14T07:52:39.764Z,20.40
2018-08-14T07:55:08.536Z,20.40
2018-08-14T07:57:36.855Z,20.40
2018-08-14T08:00:13.117Z,20.40
2018-08-14T08:02:41.244Z,20.40
2018-08-14T08:05:09.366Z,20.50
2018-08-14T08:07:37.897Z,20.40
2018-08-14T08:10:08.274Z,20.30
2018-08-14T08:12:36.605Z,20.40
2018-08-14T08:15:06.294Z,20.40
2018-08-14T08:17:34.382Z,20.40
2018-08-14T08:20:02.599Z,20.50
2018-08-14T08:22:30.861Z,20.40
2018-08-14T08:24:58.992Z,20.50
2018-08-14T08:27:27.194Z,20.50
2018-08-14T08:29:55.317Z,20.50
2018-08-14T08:32:23.530Z,20.40
2018-08-14T08:34:51.994Z,20.40
2018-08-14T08:37:20.142Z,20.40
2018-08-14T08:39:48.258Z,20.40
2018-08-14T08:42:16.353Z,20.50
2018-08-14T08:44:44.437Z,20.50
2018-08-14T08:47:12.552Z,20.60
2018-08-14T08:49:40.688Z,20.50
2018-08-14T08:52:08.846Z,20.60
2018-08-14T08:54:36.984Z,20.60
2018-08-14T08:57:05.426Z,20.50
2018-08-14T08:59:33.599Z,20.50
2018-08-14T09:02:01.777Z,20.60
2018-08-14T09:04:29.985Z,20.60
2018-08-14T09:06:58.540Z,20.60
2018-08-14T09:09:26.639Z,20.70
2018-08-14T09:11:54.728Z,20.80
2018-08-14T09:14:22.800Z,20.80
2018-08-14T09:16:50.954Z,20.80
2018-08-14T09:19:19.043Z,20.80
2018-08-14T09:21:47.113Z,20.90
2018-08-14T09:24:15.217Z,20.90
2018-08-14T09:26:43.293Z,20.90
2018-08-14T09:29:11.690Z,21.00
2018-08-14T09:31:39.813Z,20.90
2018-08-14T09:34:08.912Z,20.90
2018-08-14T09:36:37.088Z,20.90
2018-08-14T09:39:08.612Z,21.10
2018-08-14T09:41:36.698Z,20.90
2018-08-14T09:44:05.188Z,21.00
2018-08-14T09:46:33.884Z,21.10
2018-08-14T09:49:02.119Z,21.20
2018-08-14T09:51:30.747Z,21.30
2018-08-14T09:53:59.092Z,21.20
2018-08-14T09:56:27.607Z,21.20
2018-08-14T09:58:55.678Z,21.10
2018-08-14T10:01:24.929Z,21.10
2018-08-14T10:04:00.033Z,21.10
2018-08-14T10:06:33.904Z,21.20
2018-08-14T10:09:02.115Z,21.20
2018-08-14T10:11:30.333Z,21.20
2018-08-14T10:13:58.502Z,21.30
2018-08-14T10:16:26.714Z,21.30
2018-08-14T10:18:54.784Z,21.30
2018-08-14T10:21:22.897Z,21.30
2018-08-14T10:23:51.000Z,21.30
2018-08-14T10:26:19.092Z,21.30
2018-08-14T10:28:47.287Z,21.40
2018-08-14T10:31:15.408Z,21.50
2018-08-14T10:33:43.473Z,21.60
2018-08-14T10:36:11.635Z,21.60
2018-08-14T10:38:39.726Z,21.80
2018-08-14T10:41:07.912Z,22.00
2018-08-14T10:43:35.991Z,22.10
2018-08-14T10:46:04.231Z,22.10
2018-08-14T10:48:32.305Z,21.90
2018-08-14T10:51:00.473Z,21.90
2018-08-14T10:53:28.780Z,21.80
2018-08-14T10:56:04.981Z,21.80
2018-08-14T10:58:33.171Z,21.70
2018-08-14T11:01:01.567Z,21.70
2018-08-14T11:03:29.797Z,21.70
2018-08-14T11:05:58.021Z,21.60
2018-08-14T11:08:26.143Z,21.60
2018-08-14T11:10:59.626Z,21.30
2018-08-14T11:13:27.773Z,21.30
2018-08-14T11:15:55.934Z,21.30
2018-08-14T11:18:24.021Z,21.30
2018-08-14T11:20:52.116Z,21.20
2018-08-14T11:23:20.276Z,21.20
2018-08-14T11:25:48.377Z,21.10
2018-08-14T11:28:16.481Z,21.20
2018-08-14T11:30:44.621Z,21.10
2018-08-14T11:33:12.692Z,21.30
2018-08-14T11:35:46.237Z,21.20
2018-08-14T11:38:14.335Z,21.20
2018-08-14T11:40:42.416Z,21.20
2018-08-14T11:43:10.545Z,21.20
2018-08-14T11:45:38.644Z,21.30
2018-08-14T11:48:07.097Z,21.50
2018-08-14T11:50:35.259Z,21.60
2018-08-14T11:53:03.434Z,21.70
2018-08-14T11:55:32.013Z,21.80
2018-08-14T11:58:00.158Z,21.90
2018-08-14T12:00:28.361Z,22.00
2018-08-14T12:02:56.808Z,22.10
2018-08-14T12:05:25.105Z,22.20
2018-08-14T12:07:53.182Z,22.10
2018-08-14T12:10:22.195Z,22.10
2018-08-14T12:12:50.347Z,22.10
2018-08-14T12:15:18.605Z,22.10
2018-08-14T12:17:47.484Z,22.10
2018-08-14T12:20:16.879Z,22.20
2018-08-14T12:22:44.987Z,22.40
2018-08-14T12:25:14.470Z,22.40
2018-08-14T12:27:42.569Z,22.40
2018-08-14T12:30:14.789Z,22.30
2018-08-14T12:32:42.984Z,22.60
2018-08-14T12:35:11.200Z,23.10
2018-08-14T12:37:39.360Z,22.90
2018-08-14T12:40:08.927Z,22.70
2018-08-14T12:42:37.308Z,22.50
2018-08-14T12:45:10.192Z,22.60
2018-08-14T12:47:38.272Z,22.30
2018-08-14T12:50:06.622Z,22.30
2018-08-14T12:52:34.733Z,22.50
2018-08-14T12:55:02.893Z,22.40
2018-08-14T12:57:31.099Z,22.30
2018-08-14T12:59:59.288Z,22.20
2018-08-14T13:02:27.461Z,22.20
2018-08-14T13:04:55.630Z,22.20
2018-08-14T13:07:23.754Z,22.20
2018-08-14T13:09:51.813Z,22.20
2018-08-14T13:12:19.885Z,22.20
2018-08-14T13:14:48.040Z,22.10
2018-08-14T13:17:16.149Z,22.20
2018-08-14T13:19:44.320Z,22.20
2018-08-14T13:22:12.419Z,22.10
2018-08-14T13:24:40.562Z,22.00
2018-08-14T13:27:08.681Z,22.00
2018-08-14T13:29:36.792Z,22.20
2018-08-14T13:32:04.936Z,22.20
2018-08-14T13:34:33.097Z,22.20
2018-08-14T13:37:01.364Z,22.30
2018-08-14T13:39:29.539Z,22.30
2018-08-14T13:41:57.675Z,22.30
2018-08-14T13:44:25.949Z,22.20
2018-08-14T13:46:54.037Z,22.40
2018-08-14T13:49:22.222Z,22.50
2018-08-14T13:51:50.391Z,22.50
2018-08-14T13:54:18.476Z,22.30
2018-08-14T13:56:46.577Z,22.40
2018-08-14T13:59:14.788Z,22.60
2018-08-14T14:01:42.785Z,22.80
2018-08-14T14:04:10.916Z,22.80
2018-08-14T14:06:39.145Z,22.90
2018-08-14T14:09:07.302Z,22.70
2018-08-14T14:11:35.392Z,22.60
2018-08-14T14:14:04.432Z,22.70
2018-08-14T14:16:32.559Z,23.10
2018-08-14T14:19:00.993Z,22.90
2018-08-14T14:21:29.197Z,22.60
2018-08-14T14:23:57.364Z,22.60
2018-08-14T14:26:25.462Z,22.50
2018-08-14T14:28:53.582Z,22.40
2018-08-14T14:31:21.763Z,22.70
2018-08-14T14:33:49.827Z,22.70
2018-08-14T14:36:17.912Z,22.50
2018-08-14T14:38:46.009Z,22.60
2018-08-14T14:41:14.104Z,22.60
2018-08-14T14:43:42.344Z,22.60
2018-08-14T14:46:10.477Z,22.50
2018-08-14T14:48:38.664Z,22.60
2018-08-14T14:51:06.741Z,22.60
2018-08-14T14:53:34.957Z,22.70
2018-08-14T14:56:03.188Z,22.50
2018-08-14T14:58:31.327Z,22.50
2018-08-14T15:00:59.617Z,22.70
2018-08-14T15:03:27.744Z,22.70
2018-08-14T15:05:55.886Z,22.70
2018-08-14T15:08:23.964Z,22.50
2018-08-14T15:10:52.049Z,22.70
2018-08-14T15:13:20.244Z,22.80
2018-08-14T15:15:48.353Z,22.60
2018-08-14T15:18:16.476Z,22.50
2018-08-14T15:20:44.561Z,22.60
2018-08-14T15:23:12.647Z,22.50
2018-08-14T15:25:40.721Z,22.50
2018-08-14T15:29:13.146Z,22.40
2018-08-14T15:31:42.955Z,22.60
2018-08-14T15:34:12.268Z,22.50
2018-08-14T15:36:40.670Z,22.40
2018-08-14T15:39:10.348Z,22.40
2018-08-14T15:41:38.627Z,22.40
2018-08-14T15:44:06.900Z,22.40
2018-08-14T15:46:35.011Z,22.40
2018-08-14T15:49:03.213Z,22.40
2018-08-14T15:51:31.385Z,22.50
2018-08-14T15:53:59.662Z,22.40
2018-08-14T15:56:27.790Z,22.40
2018-08-14T15:58:55.951Z,22.40
2018-08-14T16:01:24.053Z,22.40
2018-08-14T16:03:52.128Z,22.50
2018-08-14T16:06:20.220Z,22.60
2018-08-14T16:08:48.389Z,22.50
2018-08-14T16:11:16.486Z,22.60
2018-08-14T16:13:44.579Z,22.50
2018-08-14T16:16:12.784Z,22.50
2018-08-14T16:18:40.848Z,22.50
2018-08-14T16:21:09.156Z,22.40
2018-08-14T16:23:37.287Z,22.40
2018-08-14T16:26:05.394Z,22.40
2018-08-14T16:28:33.565Z,22.40
2018-08-14T16:31:01.694Z,22.40
2018-08-14T16:33:30.362Z,22.40
2018-08-14T16:35:58.622Z,22.40
2018-08-14T16:38:26.793Z,22.40
2018-08-14T16:40:54.882Z,22.40
2018-08-14T16:43:22.933Z,22.40
2018-08-14T16:45:51.030Z,22.40
2018-08-14T16:48:19.142Z,22.30
2018-08-14T16:50:47.445Z,22.30
2018-08-14T16:53:15.529Z,22.30
2018-08-14T16:55:43.695Z,22.30
2018-08-14T16:58:11.782Z,22.40
2018-08-14T17:00:40.965Z,22.40
2018-08-14T17:03:10.267Z,22.30
2018-08-14T17:05:38.801Z,22.30
2018-08-14T17:08:07.062Z,22.30
2018-08-14T17:13:09.723Z,22.30
2018-08-14T17:15:37.824Z,22.30
2018-08-14T17:18:05.965Z,22.30
2018-08-14T17:20:33.260Z,22.30
2018-08-14T17:23:01.704Z,22.30
2018-08-14T17:25:29.984Z,22.30
2018-08-14T17:27:58.144Z,22.30
2018-08-14T17:30:27.428Z,22.30
2018-08-14T17:32:56.103Z,22.30
2018-08-14T17:35:24.272Z,22.30
2018-08-14T17:37:53.463Z,22.30
2018-08-14T17:40:22.757Z,22.30
2018-08-14T17:42:50.901Z,22.20
2018-08-14T17:45:22.197Z,22.20
2018-08-14T17:47:51.517Z,22.20
2018-08-14T17:50:20.057Z,22.20
2018-08-14T17:52:48.255Z,22.20
2018-08-14T17:55:16.424Z,22.20
2018-08-14T17:57:44.600Z,22.20
2018-08-14T18:00:17.324Z,22.20
2018-08-14T18:02:46.256Z,22.20
2018-08-14T18:05:14.384Z,22.20
2018-08-14T18:07:42.906Z,22.20
2018-08-14T18:10:13.144Z,22.20
2018-08-14T18:12:41.237Z,22.10
2018-08-14T18:15:10.751Z,22.20
2018-08-14T18:17:39.097Z,22.20
2018-08-14T18:20:10.893Z,22.10
2018-08-14T18:22:39.325Z,22.20
2018-08-14T18:25:07.656Z,22.20
2018-08-14T18:27:35.775Z,22.20
2018-08-14T18:30:04.649Z,22.10
2018-08-14T18:32:32.803Z,22.10
2018-08-14T18:35:00.941Z,22.10
2018-08-14T18:37:29.098Z,22.10
2018-08-14T18:39:57.420Z,22.10
2018-08-14T18:42:25.655Z,22.10
2018-08-14T18:44:53.871Z,22.00
2018-08-14T18:47:22.159Z,21.90
2018-08-14T18:49:50.220Z,21.90
2018-08-14T18:52:18.388Z,21.80
2018-08-14T18:54:46.506Z,21.90
2018-08-14T18:57:14.680Z,21.80
2018-08-14T18:59:42.742Z,21.80
2018-08-14T19:02:10.888Z,21.60
2018-08-14T19:04:39.057Z,21.60
2018-08-14T19:07:07.125Z,21.60
2018-08-14T19:09:35.261Z,21.60
2018-08-14T19:12:03.482Z,21.50
2018-08-14T19:14:31.633Z,21.40
2018-08-14T19:16:59.785Z,21.30
2018-08-14T19:19:27.940Z,21.40
2018-08-14T19:21:56.116Z,21.40
2018-08-14T19:24:24.222Z,21.50
2018-08-14T19:26:52.358Z,21.40
2018-08-14T19:29:20.465Z,21.40
2018-08-14T19:31:48.578Z,21.40
2018-08-14T19:34:16.760Z,21.40
2018-08-14T19:36:44.909Z,21.40
2018-08-14T19:39:13.281Z,21.50
2018-08-14T19:41:42.876Z,21.40
2018-08-14T19:44:11.693Z,21.40
2018-08-14T19:46:39.885Z,21.40
2018-08-14T19:49:08.009Z,21.30
2018-08-14T19:51:36.421Z,21.30
2018-08-14T19:54:04.569Z,21.30
2018-08-14T19:56:32.720Z,21.10
2018-08-14T19:59:01.312Z,21.30
2018-08-14T20:01:29.490Z,21.30
2018-08-14T20:03:57.677Z,21.30
2018-08-14T20:06:25.807Z,21.30
2018-08-14T20:08:54.005Z,21.30
2018-08-14T20:11:22.203Z,21.20
2018-08-14T20:13:50.277Z,21.20
2018-08-14T20:16:18.372Z,21.30
2018-08-14T20:18:46.495Z,21.30
2018-08-14T20:21:14.580Z,21.30
2018-08-14T20:23:42.692Z,21.30
2018-08-14T20:26:10.863Z,21.20
2018-08-14T20:28:38.966Z,21.10
2018-08-14T20:31:07.173Z,21.20
2018-08-14T20:33:35.269Z,21.00
2018-08-14T20:36:03.488Z,21.00
2018-08-14T20:38:31.706Z,21.10
2018-08-14T20:40:59.771Z,21.10
2018-08-14T20:43:27.986Z,21.10
2018-08-14T20:45:56.117Z,21.30
2018-08-14T20:48:24.255Z,21.20
2018-08-14T20:50:52.368Z,21.20
2018-08-14T20:53:20.524Z,21.20
2018-08-14T20:55:48.704Z,21.20
2018-08-14T20:58:16.802Z,21.10
2018-08-14T21:00:44.917Z,21.00
2018-08-14T21:03:13.024Z,21.20
2018-08-14T21:05:41.129Z,21.20
2018-08-14T21:08:09.234Z,21.10
2018-08-14T21:10:37.345Z,21.10
2018-08-14T21:13:05.436Z,21.10
2018-08-14T21:15:38.941Z,20.90
2018-08-14T21:18:07.114Z,21.10
2018-08-14T21:20:35.239Z,21.10
2018-08-14T21:23:03.376Z,21.10
2018-08-14T21:25:31.633Z,21.20
2018-08-14T21:27:59.827Z,21.10
2018-08-14T21:30:28.063Z,21.00
2018-08-14T21:32:56.160Z,21.10
2018-08-14T21:35:24.228Z,21.00
2018-08-14T21:37:52.304Z,21.10
2018-08-14T21:40:20.418Z,21.00
2018-08-14T21:42:49.800Z,20.90
2018-08-14T21:45:19.230Z,20.90
2018-08-14T21:47:47.416Z,21.10
2018-08-14T21:50:15.521Z,21.10
2018-08-14T21:52:43.588Z,21.20
2018-08-14T21:55:13.458Z,21.10
2018-08-14T21:57:42.302Z,21.10
2018-08-14T22:00:23.008Z,21.00
2018-08-14T22:02:51.816Z,21.10
2018-08-14T22:05:20.028Z,21.10
2018-08-14T22:07:48.130Z,21.10
2018-08-14T22:10:18.561Z,21.10
2018-08-14T22:12:46.698Z,21.00
2018-08-14T22:15:14.871Z,21.10
2018-08-14T22:17:43.001Z,21.10
2018-08-14T22:20:12.888Z,20.90
2018-08-14T22:22:41.655Z,21.00
2018-08-14T22:25:09.821Z,21.00
2018-08-14T22:27:37.924Z,21.10
2018-08-14T22:30:08.835Z,20.90
2018-08-14T22:32:36.963Z,20.90
2018-08-14T22:35:05.144Z,20.90
2018-08-14T22:37:33.253Z,21.10
2018-08-14T22:40:01.686Z,20.90
2018-08-14T22:42:29.853Z,20.80
2018-08-14T22:44:57.979Z,20.80
2018-08-14T22:47:26.102Z,20.80
2018-08-14T22:49:54.315Z,20.90
2018-08-14T22:52:22.396Z,20.90
2018-08-14T22:54:50.585Z,20.80
2018-08-14T22:57:18.645Z,20.80
2018-08-14T22:59:46.724Z,20.70
2018-08-14T23:02:14.889Z,20.70
2018-08-14T23:04:42.980Z,20.70
2018-08-14T23:07:11.094Z,20.80
2018-08-14T23:09:39.400Z,20.70
2018-08-14T23:12:07.489Z,20.60
2018-08-14T23:14:35.656Z,20.70
2018-08-14T23:17:03.777Z,20.60
2018-08-14T23:19:31.928Z,20.80
2018-08-14T23:22:00.086Z,20.80
2018-08-14T23:24:28.266Z,20.70
2018-08-14T23:26:56.401Z,20.80
2018-08-14T23:29:24.704Z,20.70
2018-08-14T23:31:52.928Z,20.70
2018-08-14T23:34:21.047Z,20.70
2018-08-14T23:36:49.172Z,20.70
2018-08-14T23:39:17.292Z,20.70
2018-08-14T23:41:45.368Z,20.60
2018-08-14T23:44:13.469Z,20.50
2018-08-14T23:46:41.599Z,20.50
2018-08-14T23:49:09.664Z,20.50
2018-08-14T23:51:37.845Z,20.50
2018-08-14T23:54:06.300Z,20.50
2018-08-14T23:56:34.449Z,20.50
2018-08-14T23:59:02.600Z,20.60
